Texhoma, OK (73949)

3:56 PM CDT on October 24, 2014 (GMT -0500)
Guymon Municipal | Change Station
CLOSE
Current Station
Airport
Location: Guymon,
Elevation: 3123 ft
Nearby Weather Stations

Elev 3123 ft 36.68 °N, 101.51 °W | Updated 3 minutes ago

Clear
Clear
90 °F
Feels Like 90 °F
N
8
Wind Variable Wind from SSW

Today
High -- | Low -- °F
--% Chance of Precip.
Yesterday
High -- | Low -- °F
Precip. -- in
8:02 AM 6:59 PM
New Moon, 1% visible
Pressure 29.91 in
Visibility 10.0 miles
Clouds Clear
Dew Point 34 °F
Humidity 14%
Rainfall 0.00 in
Snow Depth Not available.
UV 3 out of 12
Pollen 6.30 out of 12
Air Quality Not available.
Flu Activity No Activity
METAR KGUY 242053Z AUTO 21007KT 10SM CLR 32/01 A3003 RMK AO2 SLP129 T03220011 56020

More Conditions Fewer Conditions

Pressure 29.91 in
Visibility 10.0 miles
Clouds Clear
Dew Point 34 °F
Humidity 14%
Rainfall 0.00 in
Snow Depth Not available.
UV 3 out of 12
Pollen 6.30 out of 12
Air Quality Not available.
Flu Activity No Activity
METAR KGUY 242053Z AUTO 21007KT 10SM CLR 32/01 A3003 RMK AO2 SLP129 T03220011 56020

More Conditions Fewer Conditions

10-Day Weather Forecast

Almanac

Astronomy

Oct. 24, 2014 Rise Set
Actual Time 8:02 AM CDT 6:59 PM CDT
Civil Twilight 7:36 AM CDT 7:25 PM CDT
Nautical Twilight 7:06 AM CDT 7:55 PM CDT
Astronomical Twilight 6:36 AM CDT 8:25 PM CDT
Moon 8:42 AM CDT 7:42 PM CDT
Length of Visible Light 11h 49m
Length of Day
10h 56m
Tomorrow will be 2m 8s shorter.
New Moon, 1% of the Moon is Illuminated
Today
New Moon
Oct 30
First Quarter
Nov 6
Full
Nov 14
Last Quarter
Nov 22
New

Today's Extremes

State Highs State Lows

Community

WunderPhotos

Upload Photos

1,764,654 photos uploaded!

Nearby

Snow Depth

Station Depth Elevation
No new snow has been reported.

Earthquake Activity

City Distance Mag. Time & Date
No recent earthquake activity has been reported nearby.
Minimum magnitude displayed is 2.5.

Coastal Water Temperatures

Place Temperature
No Stations Reporting

Nearby Weather Stations